Terminal Aerodrome Forecast
Issued by NWS

Home | Current Version | Previous Version | Text Only | Print | Product List | Glossary On
Versions: 1 2 3 4 5 6 7 8 9 10 11 12
000
FTUS42 KGSP 011134
TAFAND
TAF
KAND 011134Z 0112/0212 18005KT P6SM BKN150
     FM012000 18008KT P6SM OVC035
     FM012200 17007KT P6SM -SHRA OVC020
     FM020200 16008KT 4SM -SHRA BR OVC008
     FM020400 19013KT 2SM -SHRA BR OVC007=

USA.gov is the U.S. government's official web portal to all federal, state and local government web resources and services.